MSC Talia F — CQIH9 — position and weather

sailwx.info

Track history (hours):
 
Tides and Currents Weather Stations Pressure Air Temp Water Temp Dewpoint Dewpoint Depression Visibility Wind Speed Wind Dir Waves Ship Positions

MSC Talia F

Last reported at 2018-Jan-12 14:59 UTC. Time now 2018-Jan-18 10:15 UTC.
Position N 37°57' E 023°36'.

Length 139 m; draft 8.8 m.

Type: Ship (hazmat cat A). MMSI: 255805965.

Date/timePositionNaut miles runAvg speedWind from/ knotsBaromVisibWave heightAir tempDewpointWater temp
2018-Jan-12 14:59N 37°57' E 023°36'0 0.0
2018-Jan-12 14:29N 37°57' E 023°36'0 0.0
2018-Jan-12 13:59N 37°57' E 023°36'0 0.0
2018-Jan-12 13:29N 37°57' E 023°36'0 0.0
2018-Jan-12 12:59N 37°57' E 023°36'0 0.0
2018-Jan-12 12:29N 37°57' E 023°36'0 0.0
2018-Jan-12 11:59N 37°57' E 023°36'0 0.0
2018-Jan-12 11:29N 37°57' E 023°36'0 0.0
2018-Jan-12 10:59N 37°57' E 023°36'0 0.0
2018-Jan-12 10:29N 37°57' E 023°36'0 0.0
2018-Jan-12 09:59N 37°57' E 023°36'0 0.0
2018-Jan-12 09:29N 37°57' E 023°36'0 0.0
2018-Jan-12 08:59N 37°57' E 023°36'0 0.0
2018-Jan-12 08:30N 37°57' E 023°36'0 0.0
2018-Jan-12 07:59N 37°57' E 023°36'0 0.0
2018-Jan-12 07:29N 37°57' E 023°36'0 0.0
2018-Jan-12 06:59N 37°57' E 023°36'0 0.0
2018-Jan-12 06:29N 37°57' E 023°36'0 0.0
2018-Jan-12 05:59N 37°57' E 023°36'0 0.0
2018-Jan-12 05:29N 37°57' E 023°36'0 0.0
2018-Jan-12 04:59N 37°57' E 023°36'0 0.0
2018-Jan-12 04:29N 37°57' E 023°36'0 0.0
2018-Jan-12 03:59N 37°57' E 023°36'0 0.0
2018-Jan-12 03:29N 37°57' E 023°36'0 0.0
2018-Jan-12 02:59N 37°57' E 023°36'0 0.0
2018-Jan-12 02:29N 37°57' E 023°36'0 0.0
2018-Jan-12 01:59N 37°57' E 023°36'0 0.0
2018-Jan-12 01:29N 37°57' E 023°36'0 0.0
2018-Jan-12 00:59N 37°57' E 023°36'0 0.0
2018-Jan-12 00:29N 37°57' E 023°36'0 0.0
2018-Jan-11 23:59N 37°57' E 023°36'0 0.0
2018-Jan-11 23:29N 37°57' E 023°36'0 0.0
2018-Jan-11 22:59N 37°57' E 023°36'0 0.0
2018-Jan-11 22:29N 37°57' E 023°36'0 0.0
2018-Jan-11 21:58N 37°57' E 023°36'0 0.0
2018-Jan-11 21:28N 37°57' E 023°36'0 0.0
2018-Jan-11 20:58N 37°57' E 023°36'0 0.0
2018-Jan-11 20:28N 37°57' E 023°36'0 0.0
2018-Jan-11 19:58N 37°57' E 023°36'0 0.0
2018-Jan-11 19:28N 37°57' E 023°36'0 0.0
2018-Jan-11 18:58N 37°57' E 023°36'0 0.0
2018-Jan-11 18:28N 37°57' E 023°36'0 0.0
2018-Jan-11 17:58N 37°57' E 023°36'0 0.0
2018-Jan-11 17:28N 37°57' E 023°36'0 0.0
2018-Jan-11 16:58N 37°57' E 023°36'0 0.0
2018-Jan-11 16:30N 37°57' E 023°36'2 4.5
2018-Jan-11 16:00N 37°55' E 023°36'1 2.3
2018-Jan-11 15:30N 37°54' E 023°36'0 0.7
2018-Jan-11 15:01N 37°54' E 023°36'1 2.7
2018-Jan-11 14:30N 37°53' E 023°37'3 6.4
2018-Jan-11 14:00N 37°50' E 023°40'4 7.8
2018-Jan-11 13:30N 37°47' E 023°42'4 8.0
2018-Jan-11 13:00N 37°43' E 023°44'4 8.0
2018-Jan-11 12:30N 37°40' E 023°46'911.8
2018-Jan-11 11:43N 37°35' E 023°57'312.8
2018-Jan-11 11:30N 37°35' E 024°00'712.4
2018-Jan-11 10:58N 37°37' E 024°08'1014.0
2018-Jan-11 10:16N 37°44' E 024°18'1114.3
2018-Jan-11 09:30N 37°51' E 024°28'  
2018-Jan-07 03:09N 39°38' E 024°05'313.4
2018-Jan-07 02:57N 39°36' E 024°08'10112.2
2018-Jan-06 18:39N 37°58' E 024°39'212.4
2018-Jan-06 18:30N 37°57' E 024°37'612.5
2018-Jan-06 18:00N 37°53' E 024°31'612.1
2018-Jan-06 17:30N 37°50' E 024°25'612.3
2018-Jan-06 17:00N 37°45' E 024°19'912.5
2018-Jan-06 16:18N 37°39' E 024°11'412.5
2018-Jan-06 15:58N 37°36' E 024°08'612.2
2018-Jan-06 15:27N 37°36' E 023°60'612.7
2018-Jan-06 15:01N 37°36' E 023°53'612.7
2018-Jan-06 14:30N 37°39' E 023°46'612.2
2018-Jan-06 14:00N 37°43' E 023°40'713.2
2018-Jan-06 13:30N 37°49' E 023°37'510.6
2018-Jan-06 13:00N 37°55' E 023°36'3 5.1
2018-Jan-06 12:29N 37°57' E 023°36'0 0.1
2018-Jan-06 11:59N 37°57' E 023°36'0 0.0
2018-Jan-06 11:30N 37°57' E 023°36'0 0.0
2018-Jan-06 10:58N 37°57' E 023°36'0 0.0
2018-Jan-06 10:28N 37°57' E 023°36'0 0.0
2018-Jan-06 09:58N 37°57' E 023°36'0 0.0
2018-Jan-06 09:25N 37°57' E 023°36'0 0.0
2018-Jan-06 08:58N 37°57' E 023°36'0 0.0
2018-Jan-06 08:28N 37°57' E 023°36'0 0.0
2018-Jan-06 07:55N 37°57' E 023°36'0 0.0
2018-Jan-06 07:28N 37°57' E 023°36'0 0.0
2018-Jan-06 06:58N 37°57' E 023°36'0 0.0
2018-Jan-06 06:28N 37°57' E 023°36'0 0.0
2018-Jan-06 05:58N 37°57' E 023°36'0 0.0
2018-Jan-06 05:28N 37°57' E 023°36'0 0.0
2018-Jan-06 04:58N 37°57' E 023°36'0 0.0
2018-Jan-06 04:28N 37°57' E 023°36'0 0.0
2018-Jan-06 03:58N 37°57' E 023°36'0 0.0
2018-Jan-06 03:28N 37°57' E 023°36'0 0.0
2018-Jan-06 02:58N 37°57' E 023°36'0 0.0
2018-Jan-06 02:28N 37°57' E 023°36'0 0.0
2018-Jan-06 01:58N 37°57' E 023°36'0 0.0
2018-Jan-06 01:28N 37°57' E 023°36'0 0.0
2018-Jan-06 00:58N 37°57' E 023°36'0 0.0
2018-Jan-06 00:28N 37°57' E 023°36'0 0.0
2018-Jan-05 23:58N 37°57' E 023°36'0 0.0
2018-Jan-05 23:28N 37°57' E 023°36'0 0.0
2018-Jan-05 22:58N 37°57' E 023°36'0 0.0
2018-Jan-05 22:28N 37°57' E 023°36'0 0.0
2018-Jan-05 21:59N 37°57' E 023°36'0 0.0
2018-Jan-05 21:28N 37°57' E 023°36'0 0.0
2018-Jan-05 20:58N 37°57' E 023°36'0 0.0
2018-Jan-05 20:30N 37°57' E 023°36'0 0.0
2018-Jan-05 20:00N 37°57' E 023°36'0 0.0
2018-Jan-05 19:30N 37°57' E 023°36'0 0.0
2018-Jan-05 19:00N 37°57' E 023°36'0 0.0
2018-Jan-05 18:30N 37°57' E 023°36'0 0.0
2018-Jan-05 18:00N 37°57' E 023°36'0 0.0
2018-Jan-05 17:27N 37°57' E 023°36'0 0.0
2018-Jan-05 17:00N 37°57' E 023°36'0 0.0
2018-Jan-05 16:30N 37°57' E 023°36'0 0.0
2018-Jan-05 15:57N 37°57' E 023°36'0 0.0
2018-Jan-05 15:27N 37°57' E 023°36'0 0.0
2018-Jan-05 15:00N 37°57' E 023°36'0 0.0
2018-Jan-05 14:30N 37°57' E 023°36'0 0.0
2018-Jan-05 14:00N 37°57' E 023°36'0 0.0
2018-Jan-05 13:30N 37°57' E 023°36'0 0.0
2018-Jan-05 13:00N 37°57' E 023°36'0 0.0
2018-Jan-05 12:30N 37°57' E 023°36'0 0.0
2018-Jan-05 12:00N 37°57' E 023°36'0 0.0
2018-Jan-05 11:30N 37°57' E 023°36'0 0.0
2018-Jan-05 11:00N 37°57' E 023°36'0 0.0
2018-Jan-05 10:30N 37°57' E 023°36'0 0.0
2018-Jan-05 10:00N 37°57' E 023°36'0 0.0
2018-Jan-05 09:29N 37°57' E 023°36'0 0.0
2018-Jan-05 08:59N 37°57' E 023°36'0 0.0
2018-Jan-05 08:30N 37°57' E 023°36'0 0.0
2018-Jan-05 07:59N 37°57' E 023°36'0 0.0
2018-Jan-05 07:29N 37°57' E 023°36'0 0.0
2018-Jan-05 06:59N 37°57' E 023°36'0 0.0
2018-Jan-05 06:28N 37°57' E 023°36'0 0.0
2018-Jan-05 05:59N 37°57' E 023°36'0 1.0
2018-Jan-05 05:30N 37°57' E 023°36'2 4.0
2018-Jan-05 05:00N 37°55' E 023°36'1 1.2
2018-Jan-05 04:30N 37°54' E 023°36'1 1.4
2018-Jan-05 04:00N 37°54' E 023°36'0 0.9
2018-Jan-05 03:30N 37°53' E 023°36'2 4.4
2018-Jan-05 03:00N 37°51' E 023°37'2 4.9
2018-Jan-05 02:30N 37°50' E 023°40'2 4.3
2018-Jan-05 02:00N 37°48' E 023°41'2 3.5
2018-Jan-05 01:30N 37°46' E 023°42'4 7.4
2018-Jan-05 01:00N 37°43' E 023°44'4 8.5
2018-Jan-05 00:30N 37°39' E 023°47'9 9.6
2018-Jan-04 23:36N 37°36' E 023°57'1 9.8
2018-Jan-04 23:30N 37°36' E 023°58'5 9.8
2018-Jan-04 23:00N 37°35' E 024°04'5 9.3
2018-Jan-04 22:30N 37°37' E 024°09'2010.4
2018-Jan-04 20:33N 37°52' E 024°28'010.4
2018-Jan-04 20:30N 37°52' E 024°28'  
Track history (hours):
 
Tides and Currents Weather Stations Pressure Air Temp Water Temp Dewpoint Dewpoint Depression Visibility Wind Speed Wind Dir Waves Ship Positions

MSC Talia F

Last reported at 2018-Jan-12 14:59 UTC. Time now 2018-Jan-18 10:15 UTC.
Position N 37°57' E 023°36'.

Length 139 m; draft 8.8 m.

Type: Ship (hazmat cat A). MMSI: 255805965.

Date/timePositionNaut miles runAvg speedWind from/ knotsBaromVisibWave heightAir tempDewpointWater temp
2018-Jan-12 14:59N 37°57' E 023°36'0 0.0
2018-Jan-12 14:29N 37°57' E 023°36'0 0.0
2018-Jan-12 13:59N 37°57' E 023°36'0 0.0
2018-Jan-12 13:29N 37°57' E 023°36'0 0.0
2018-Jan-12 12:59N 37°57' E 023°36'0 0.0
2018-Jan-12 12:29N 37°57' E 023°36'0 0.0
2018-Jan-12 11:59N 37°57' E 023°36'0 0.0
2018-Jan-12 11:29N 37°57' E 023°36'0 0.0
2018-Jan-12 10:59N 37°57' E 023°36'0 0.0
2018-Jan-12 10:29N 37°57' E 023°36'0 0.0
2018-Jan-12 09:59N 37°57' E 023°36'0 0.0
2018-Jan-12 09:29N 37°57' E 023°36'0 0.0
2018-Jan-12 08:59N 37°57' E 023°36'0 0.0
2018-Jan-12 08:30N 37°57' E 023°36'0 0.0
2018-Jan-12 07:59N 37°57' E 023°36'0 0.0
2018-Jan-12 07:29N 37°57' E 023°36'0 0.0
2018-Jan-12 06:59N 37°57' E 023°36'0 0.0
2018-Jan-12 06:29N 37°57' E 023°36'0 0.0
2018-Jan-12 05:59N 37°57' E 023°36'0 0.0
2018-Jan-12 05:29N 37°57' E 023°36'0 0.0
2018-Jan-12 04:59N 37°57' E 023°36'0 0.0
2018-Jan-12 04:29N 37°57' E 023°36'0 0.0
2018-Jan-12 03:59N 37°57' E 023°36'0 0.0
2018-Jan-12 03:29N 37°57' E 023°36'0 0.0
2018-Jan-12 02:59N 37°57' E 023°36'0 0.0
2018-Jan-12 02:29N 37°57' E 023°36'0 0.0
2018-Jan-12 01:59N 37°57' E 023°36'0 0.0
2018-Jan-12 01:29N 37°57' E 023°36'0 0.0
2018-Jan-12 00:59N 37°57' E 023°36'0 0.0
2018-Jan-12 00:29N 37°57' E 023°36'0 0.0
2018-Jan-11 23:59N 37°57' E 023°36'0 0.0
2018-Jan-11 23:29N 37°57' E 023°36'0 0.0
2018-Jan-11 22:59N 37°57' E 023°36'0 0.0
2018-Jan-11 22:29N 37°57' E 023°36'0 0.0
2018-Jan-11 21:58N 37°57' E 023°36'0 0.0
2018-Jan-11 21:28N 37°57' E 023°36'0 0.0
2018-Jan-11 20:58N 37°57' E 023°36'0 0.0
2018-Jan-11 20:28N 37°57' E 023°36'0 0.0
2018-Jan-11 19:58N 37°57' E 023°36'0 0.0
2018-Jan-11 19:28N 37°57' E 023°36'0 0.0
2018-Jan-11 18:58N 37°57' E 023°36'0 0.0
2018-Jan-11 18:28N 37°57' E 023°36'0 0.0
2018-Jan-11 17:58N 37°57' E 023°36'0 0.0
2018-Jan-11 17:28N 37°57' E 023°36'0 0.0
2018-Jan-11 16:58N 37°57' E 023°36'0 0.0
2018-Jan-11 16:30N 37°57' E 023°36'2 4.5
2018-Jan-11 16:00N 37°55' E 023°36'1 2.3
2018-Jan-11 15:30N 37°54' E 023°36'0 0.7
2018-Jan-11 15:01N 37°54' E 023°36'1 2.7
2018-Jan-11 14:30N 37°53' E 023°37'3 6.4
2018-Jan-11 14:00N 37°50' E 023°40'4 7.8
2018-Jan-11 13:30N 37°47' E 023°42'4 8.0
2018-Jan-11 13:00N 37°43' E 023°44'4 8.0
2018-Jan-11 12:30N 37°40' E 023°46'911.8
2018-Jan-11 11:43N 37°35' E 023°57'312.8
2018-Jan-11 11:30N 37°35' E 024°00'712.4
2018-Jan-11 10:58N 37°37' E 024°08'1014.0
2018-Jan-11 10:16N 37°44' E 024°18'1114.3
2018-Jan-11 09:30N 37°51' E 024°28'  
2018-Jan-07 03:09N 39°38' E 024°05'313.4
2018-Jan-07 02:57N 39°36' E 024°08'10112.2
2018-Jan-06 18:39N 37°58' E 024°39'212.4
2018-Jan-06 18:30N 37°57' E 024°37'612.5
2018-Jan-06 18:00N 37°53' E 024°31'612.1
2018-Jan-06 17:30N 37°50' E 024°25'612.3
2018-Jan-06 17:00N 37°45' E 024°19'912.5
2018-Jan-06 16:18N 37°39' E 024°11'412.5
2018-Jan-06 15:58N 37°36' E 024°08'612.2
2018-Jan-06 15:27N 37°36' E 023°60'612.7
2018-Jan-06 15:01N 37°36' E 023°53'612.7
2018-Jan-06 14:30N 37°39' E 023°46'612.2
2018-Jan-06 14:00N 37°43' E 023°40'713.2
2018-Jan-06 13:30N 37°49' E 023°37'510.6
2018-Jan-06 13:00N 37°55' E 023°36'3 5.1
2018-Jan-06 12:29N 37°57' E 023°36'0 0.1
2018-Jan-06 11:59N 37°57' E 023°36'0 0.0
2018-Jan-06 11:30N 37°57' E 023°36'0 0.0
2018-Jan-06 10:58N 37°57' E 023°36'0 0.0
2018-Jan-06 10:28N 37°57' E 023°36'0 0.0
2018-Jan-06 09:58N 37°57' E 023°36'0 0.0
2018-Jan-06 09:25N 37°57' E 023°36'0 0.0
2018-Jan-06 08:58N 37°57' E 023°36'0 0.0
2018-Jan-06 08:28N 37°57' E 023°36'0 0.0
2018-Jan-06 07:55N 37°57' E 023°36'0 0.0
2018-Jan-06 07:28N 37°57' E 023°36'0 0.0
2018-Jan-06 06:58N 37°57' E 023°36'0 0.0
2018-Jan-06 06:28N 37°57' E 023°36'0 0.0
2018-Jan-06 05:58N 37°57' E 023°36'0 0.0
2018-Jan-06 05:28N 37°57' E 023°36'0 0.0
2018-Jan-06 04:58N 37°57' E 023°36'0 0.0
2018-Jan-06 04:28N 37°57' E 023°36'0 0.0
2018-Jan-06 03:58N 37°57' E 023°36'0 0.0
2018-Jan-06 03:28N 37°57' E 023°36'0 0.0
2018-Jan-06 02:58N 37°57' E 023°36'0 0.0
2018-Jan-06 02:28N 37°57' E 023°36'0 0.0
2018-Jan-06 01:58N 37°57' E 023°36'0 0.0
2018-Jan-06 01:28N 37°57' E 023°36'0 0.0
2018-Jan-06 00:58N 37°57' E 023°36'0 0.0
2018-Jan-06 00:28N 37°57' E 023°36'0 0.0
2018-Jan-05 23:58N 37°57' E 023°36'0 0.0
2018-Jan-05 23:28N 37°57' E 023°36'0 0.0
2018-Jan-05 22:58N 37°57' E 023°36'0 0.0
2018-Jan-05 22:28N 37°57' E 023°36'0 0.0
2018-Jan-05 21:59N 37°57' E 023°36'0 0.0
2018-Jan-05 21:28N 37°57' E 023°36'0 0.0
2018-Jan-05 20:58N 37°57' E 023°36'0 0.0
2018-Jan-05 20:30N 37°57' E 023°36'0 0.0
2018-Jan-05 20:00N 37°57' E 023°36'0 0.0
2018-Jan-05 19:30N 37°57' E 023°36'0 0.0
2018-Jan-05 19:00N 37°57' E 023°36'0 0.0
2018-Jan-05 18:30N 37°57' E 023°36'0 0.0
2018-Jan-05 18:00N 37°57' E 023°36'0 0.0
2018-Jan-05 17:27N 37°57' E 023°36'0 0.0
2018-Jan-05 17:00N 37°57' E 023°36'0 0.0
2018-Jan-05 16:30N 37°57' E 023°36'0 0.0
2018-Jan-05 15:57N 37°57' E 023°36'0 0.0
2018-Jan-05 15:27N 37°57' E 023°36'0 0.0
2018-Jan-05 15:00N 37°57' E 023°36'0 0.0
2018-Jan-05 14:30N 37°57' E 023°36'0 0.0
2018-Jan-05 14:00N 37°57' E 023°36'0 0.0
2018-Jan-05 13:30N 37°57' E 023°36'0 0.0
2018-Jan-05 13:00N 37°57' E 023°36'0 0.0
2018-Jan-05 12:30N 37°57' E 023°36'0 0.0
2018-Jan-05 12:00N 37°57' E 023°36'0 0.0
2018-Jan-05 11:30N 37°57' E 023°36'0 0.0
2018-Jan-05 11:00N 37°57' E 023°36'0 0.0
2018-Jan-05 10:30N 37°57' E 023°36'0 0.0
2018-Jan-05 10:00N 37°57' E 023°36'0 0.0
2018-Jan-05 09:29N 37°57' E 023°36'0 0.0
2018-Jan-05 08:59N 37°57' E 023°36'0 0.0
2018-Jan-05 08:30N 37°57' E 023°36'0 0.0
2018-Jan-05 07:59N 37°57' E 023°36'0 0.0
2018-Jan-05 07:29N 37°57' E 023°36'0 0.0
2018-Jan-05 06:59N 37°57' E 023°36'0 0.0
2018-Jan-05 06:28N 37°57' E 023°36'0 0.0
2018-Jan-05 05:59N 37°57' E 023°36'0 1.0
2018-Jan-05 05:30N 37°57' E 023°36'2 4.0
2018-Jan-05 05:00N 37°55' E 023°36'1 1.2
2018-Jan-05 04:30N 37°54' E 023°36'1 1.4
2018-Jan-05 04:00N 37°54' E 023°36'0 0.9
2018-Jan-05 03:30N 37°53' E 023°36'2 4.4
2018-Jan-05 03:00N 37°51' E 023°37'2 4.9
2018-Jan-05 02:30N 37°50' E 023°40'2 4.3
2018-Jan-05 02:00N 37°48' E 023°41'2 3.5
2018-Jan-05 01:30N 37°46' E 023°42'4 7.4
2018-Jan-05 01:00N 37°43' E 023°44'4 8.5
2018-Jan-05 00:30N 37°39' E 023°47'9 9.6
2018-Jan-04 23:36N 37°36' E 023°57'1 9.8
2018-Jan-04 23:30N 37°36' E 023°58'5 9.8
2018-Jan-04 23:00N 37°35' E 024°04'5 9.3
2018-Jan-04 22:30N 37°37' E 024°09'2010.4
2018-Jan-04 20:33N 37°52' E 024°28'010.4
2018-Jan-04 20:30N 37°52' E 024°28'  

Dump ship's entire track history